Air Navigation Services of Czech Republic
Airport: LKTB Updated:  21.01.2019 05:31:06  UTC
 METAR LKTB 21.01. 05:30 ...
METAR LKTB 210530Z VRB02KT CAVOK M07/M09 Q1021 NOSIG RMK REG QNH 1015=
 TAF LKTB 21.01. 05:00 ...
TAF LKTB 210500Z 2106/2212 31002KT CAVOK      TEMPO 2106/2107 4000 BR NSC      TEMPO 2110/2112 07005KT      BECMG 2122/2200 BKN027      BECMG 2200/2203 BKN012      BECMG 2208/2211 BKN030=